地図

経路データ

SID SEASON NUMBER BASIN SUBBASIN NAME ISO_TIME NATURE LAT LON WMO_WIND WMO_PRES WMO_AGENCY TRACK_TYPE DIST2LAND LANDFALL IFLAG USA_AGENCY USA_ATCF_ID USA_LAT USA_LON USA_RECORD USA_STATUS USA_WIND USA_PRES USA_SSHS USA_R34_NE USA_R34_SE USA_R34_SW USA_R34_NW USA_R50_NE USA_R50_SE USA_R50_SW USA_R50_NW USA_R64_NE USA_R64_SE USA_R64_SW USA_R64_NW USA_POCI USA_ROCI USA_RMW USA_EYE TOKYO_LAT TOKYO_LON TOKYO_GRADE TOKYO_WIND TOKYO_PRES TOKYO_R50_DIR TOKYO_R50_LONG TOKYO_R50_SHORT TOKYO_R30_DIR TOKYO_R30_LONG TOKYO_R30_SHORT TOKYO_LAND CMA_LAT CMA_LON CMA_CAT CMA_WIND CMA_PRES HKO_LAT HKO_LON HKO_CAT HKO_WIND HKO_PRES NEWDELHI_LAT NEWDELHI_LON NEWDELHI_GRADE NEWDELHI_WIND NEWDELHI_PRES NEWDELHI_CI NEWDELHI_DP NEWDELHI_POCI REUNION_LAT REUNION_LON REUNION_TYPE REUNION_WIND REUNION_PRES REUNION_TNUM REUNION_CI REUNION_RMW REUNION_R34_NE REUNION_R34_SE REUNION_R34_SW REUNION_R34_NW REUNION_R50_NE REUNION_R50_SE REUNION_R50_SW REUNION_R50_NW REUNION_R64_NE REUNION_R64_SE REUNION_R64_SW REUNION_R64_NW BOM_LAT BOM_LON BOM_TYPE BOM_WIND BOM_PRES BOM_TNUM BOM_CI BOM_RMW BOM_R34_NE BOM_R34_SE BOM_R34_SW BOM_R34_NW BOM_R50_NE BOM_R50_SE BOM_R50_SW BOM_R50_NW BOM_R64_NE BOM_R64_SE BOM_R64_SW BOM_R64_NW BOM_ROCI BOM_POCI BOM_EYE BOM_POS_METHOD BOM_PRES_METHOD NADI_LAT NADI_LON NADI_CAT NADI_WIND NADI_PRES WELLINGTON_LAT WELLINGTON_LON WELLINGTON_WIND WELLINGTON_PRES DS824_LAT DS824_LON DS824_STAGE DS824_WIND DS824_PRES TD9636_LAT TD9636_LON TD9636_STAGE TD9636_WIND TD9636_PRES TD9635_LAT TD9635_LON TD9635_WIND TD9635_PRES TD9635_ROCI NEUMANN_LAT NEUMANN_LON NEUMANN_CLASS NEUMANN_WIND NEUMANN_PRES MLC_LAT MLC_LON MLC_CLASS MLC_WIND MLC_PRES USA_GUST BOM_GUST BOM_GUST_PER REUNION_GUST REUNION_GUST_PER USA_SEAHGT USA_SEARAD_NE USA_SEARAD_SE USA_SEARAD_SW USA_SEARAD_NW STORM_SPEED STORM_DIR
1852247N32318 1852 7 NA NA NOT_NAMED 1852-09-02 12:00:00 TS 32.0000 -42.5000 main 1862 1826 _____________O -1 32.0000 -42.5000 TD 30 9 293
1852247N32318 1852 7 NA NA NOT_NAMED 1852-09-02 15:00:00 TS 32.1675 -42.9746 main 1821 1792 _____________P -1 32.1675 -42.9746 TD 32 9 290
1852247N32318 1852 7 NA NA NOT_NAMED 1852-09-02 18:00:00 TS 32.3000 -43.5000 main 1792 1762 _____________O -1 32.3000 -43.5000 TS 35 10 284
1852247N32318 1852 7 NA NA NOT_NAMED 1852-09-02 21:00:00 TS 32.3979 -44.0750 main 1759 1723 _____________P -1 32.3979 -44.0750 TS 35 9 290
1852247N32318 1852 7 NA NA NOT_NAMED 1852-09-03 00:00:00 TS 32.6000 -44.5000 main 1723 1679 _____________O -1 32.6000 -44.5000 TS 35 8 325
1852247N32318 1852 7 NA NA NOT_NAMED 1852-09-03 03:00:00 TS 33.0471 -44.6125 main 1679 1621 _____________P -1 33.0471 -44.6125 TS 35 10 1
1852247N32318 1852 7 NA NA NOT_NAMED 1852-09-03 06:00:00 TS 33.6000 -44.5000 main 1621 1574 _____________O -1 33.6000 -44.5000 TS 35 11 12
1852247N32318 1852 7 NA NA NOT_NAMED 1852-09-03 09:00:00 TS 34.1373 -44.3253 main 1578 1541 _____________P -1 34.1373 -44.3253 TS 35 11 22
1852247N32318 1852 7 NA NA NOT_NAMED 1852-09-03 12:00:00 TS 34.6000 -44.0000 main 1541 1528 _____________O -1 34.6000 -44.0000 TS 35 10 41
1852247N32318 1852 7 NA NA NOT_NAMED 1852-09-03 15:00:00 TS 34.8877 -43.5371 main 1532 1527 _____________P -1 34.8877 -43.5371 TS 37 10 59
1852247N32318 1852 7 NA NA NOT_NAMED 1852-09-03 18:00:00 TS 35.1000 -43.0000 main 1536 1531 _____________O -1 35.1000 -43.0000 TS 40 10 61
1852247N32318 1852 7 NA NA NOT_NAMED 1852-09-03 21:00:00 TS 35.3498 -42.4997 main 1540 1531 _____________P -1 35.3498 -42.4997 TS 40 10 59
1852247N32318 1852 7 NA NA NOT_NAMED 1852-09-04 00:00:00 TS 35.6000 -42.0000 main 1537 1532 _____________O -1 35.6000 -42.0000 TS 40 10 58
1852247N32318 1852 7 NA NA NOT_NAMED 1852-09-04 03:00:00 TS 35.8573 -41.4998 main 1535 1535 _____________P -1 35.8573 -41.4998 TS 40 10 58
1852247N32318 1852 7 NA NA NOT_NAMED 1852-09-04 06:00:00 TS 36.1000 -41.0000 main 1543 1540 _____________O -1 36.1000 -41.0000 TS 40 9 62
1852247N32318 1852 7 NA NA NOT_NAMED 1852-09-04 09:00:00 TS 36.2688 -40.5580 main 1548 1548 _____________P -1 36.2688 -40.5580 TS 40 9 64
1852247N32318 1852 7 NA NA NOT_NAMED 1852-09-04 12:00:00 TS 36.5000 -40.0000 main 1564 1561 _____________O -1 36.5000 -40.0000 TS 40 13 60
1852247N32318 1852 7 NA NA NOT_NAMED 1852-09-04 15:00:00 TS 36.9130 -39.1608 main 1578 1575 _____________P -1 36.9130 -39.1608 TS 42 17 58
1852247N32318 1852 7 NA NA NOT_NAMED 1852-09-04 18:00:00 TS 37.4000 -38.2000 main 1599 1597 _____________O -1 37.4000 -38.2000 TS 45 17 58
1852247N32318 1852 7 NA NA NOT_NAMED 1852-09-04 21:00:00 TS 37.8493 -37.2989 main 1625 1623 _____________P -1 37.8493 -37.2989 TS 45 17 58
1852247N32318 1852 7 NA NA NOT_NAMED 1852-09-05 00:00:00 TS 38.3000 -36.4000 main 1646 1646 _____________O -1 38.3000 -36.4000 TS 45 17 57
1852247N32318 1852 7 NA NA NOT_NAMED 1852-09-05 03:00:00 TS 38.7568 -35.4992 main 1672 1672 _____________P -1 38.7568 -35.4992 TS 45 17 57
1852247N32318 1852 7 NA NA NOT_NAMED 1852-09-05 06:00:00 TS 39.2000 -34.6000 main 1707 1707 _____________O -1 39.2000 -34.6000 TS 45 16 59
1852247N32318 1852 7 NA NA NOT_NAMED 1852-09-05 09:00:00 TS 39.5913 -33.7201 main 1745 1745 _____________P -1 39.5913 -33.7201 TS 45 16 60
1852247N32318 1852 7 NA NA NOT_NAMED 1852-09-05 12:00:00 TS 40.0000 -32.8000 main 1783 1783 _____________O -1 40.0000 -32.8000 TS 45 17 59
1852247N32318 1852 7 NA NA NOT_NAMED 1852-09-05 15:00:00 TS 40.4849 -31.7647 main 1823 1779 _____________P -1 40.4849 -31.7647 TS 42 19 58
1852247N32318 1852 7 NA NA NOT_NAMED 1852-09-05 18:00:00 TS 41.0000 -30.7000 main 1771 1685 _____________O -1 41.0000 -30.7000 TS 40 19 57
1852247N32318 1852 7 NA NA NOT_NAMED 1852-09-05 21:00:00 TS 41.4987 -29.6981 main 1677 1593 _____________P -1 41.4987 -29.6981 TS 37 18 56
1852247N32318 1852 7 NA NA NOT_NAMED 1852-09-06 00:00:00 TS 42.0000 -28.7000 main 1585 1495 _____________O -1 42.0000 -28.7000 TS 35 18 57
1852247N32318 1852 7 NA NA NOT_NAMED 1852-09-06 03:00:00 TS 42.4992 -27.6560 main 1495 1407 _____________P -1 42.4992 -27.6560 TS 35 18 57
1852247N32318 1852 7 NA NA NOT_NAMED 1852-09-06 06:00:00 ET 43.0000 -26.6000 main 1399 1314 _____________O -1 43.0000 -26.6000 EX 35 18 57
1852247N32318 1852 7 NA NA NOT_NAMED 1852-09-06 09:00:00 ET 43.5018 -25.5509 main 1314 1232 _____________P -1 43.5018 -25.5509 EX 35 18 57
1852247N32318 1852 7 NA NA NOT_NAMED 1852-09-06 12:00:00 ET 44.0000 -24.5000 main 1224 _____________O -1 44.0000 -24.5000 EX 35 18 57

IBTrACS Databaseについて

本データベースは、米国NOAAが公開する1842年以降の世界の熱帯低気圧のベストトラックデータアーカイブInternational Best Track Archive for Climate Stewardship (IBTrACS)を、ウェブで閲覧しやすい形式に変換したものです。

最終更新日:2021-11-26